LFBH 301030Z AUTO 08015KT CAVOK 25/08 Q1015

ElémentsDécodage
LFBH Station météo située sur l'aérodrome de LA-ROCHELLE Ile-de-Re
301030Z émis le 30 du mois à 10h30 UTC
AUTO Bulletin édité par un automate
08015KT vent du 080°, 15 noeuds
CAVOK Ceiling And Visibility OK
- Visibilité de 10 Km ou plus
- Pas de nuage au-dessous de 1500m ou au-dessous de l'altitude minimale du secteur la plus élevée (si>1500m) et absence de CB
- pas de temps présent significatif
25/08 température 25°C, point de rosée 08°C
 soit une humidité relative de 34%
Q1015 la pression au niveau de la mer (QNH) est de 1015 hPa